createdAt,value
2022-12-09T00:01:09.853Z,1.67
2022-12-09T00:03:37.019Z,1.61
2022-12-09T00:06:33.969Z,1.56
2022-12-09T00:09:01.185Z,1.59
2022-12-09T00:11:28.079Z,1.59
2022-12-09T00:13:56.944Z,1.54
2022-12-09T00:16:25.340Z,1.39
2022-12-09T00:18:52.945Z,1.31
2022-12-09T00:21:32.494Z,1.28
2022-12-09T00:24:02.585Z,1.21
2022-12-09T00:26:30.220Z,1.17
2022-12-09T00:28:58.158Z,1.15
2022-12-09T00:31:33.637Z,1.13
2022-12-09T00:34:05.498Z,1.13
2022-12-09T00:36:32.939Z,1.08
2022-12-09T00:39:00.483Z,1.13
2022-12-09T00:41:27.866Z,1.12
2022-12-09T00:43:54.891Z,1.19
2022-12-09T00:46:21.804Z,1.21
2022-12-09T00:48:48.859Z,1.21
2022-12-09T00:51:20.941Z,1.19
2022-12-09T00:53:48.676Z,1.23
2022-12-09T00:56:15.989Z,1.23
2022-12-09T00:58:42.991Z,1.25
2022-12-09T01:01:09.956Z,1.24
2022-12-09T01:03:36.783Z,1.23
2022-12-09T01:06:10.178Z,1.21
2022-12-09T01:08:39.286Z,1.20
2022-12-09T01:11:15.041Z,1.20
2022-12-09T01:13:41.869Z,1.19
2022-12-09T01:16:20.572Z,1.18
2022-12-09T01:18:48.773Z,1.12
2022-12-09T01:21:15.425Z,1.07
2022-12-09T01:23:42.525Z,1.01
2022-12-09T01:26:09.799Z,0.92
2022-12-09T01:28:38.501Z,0.80
2022-12-09T01:31:11.972Z,0.74
2022-12-09T01:33:39.960Z,0.68
2022-12-09T01:36:10.712Z,0.62
2022-12-09T01:38:37.642Z,0.59
2022-12-09T01:41:06.074Z,0.69
2022-12-09T01:43:33.101Z,0.71
2022-12-09T01:45:59.996Z,0.74
2022-12-09T01:48:39.546Z,0.72
2022-12-09T01:51:16.938Z,0.71
2022-12-09T01:53:47.683Z,0.67
2022-12-09T01:56:19.899Z,0.65
2022-12-09T01:58:47.879Z,0.61
2022-12-09T02:01:17.594Z,0.59
2022-12-09T02:03:45.650Z,0.55
2022-12-09T02:06:12.761Z,0.57
2022-12-09T02:08:40.309Z,0.54
2022-12-09T02:11:25.537Z,0.56
2022-12-09T02:14:05.148Z,0.62
2022-12-09T02:16:46.023Z,0.59
2022-12-09T02:19:37.309Z,0.47
2022-12-09T02:22:04.126Z,0.41
2022-12-09T02:24:30.795Z,0.47
2022-12-09T02:27:16.515Z,0.46
2022-12-09T02:30:01.901Z,0.46
2022-12-09T02:32:38.521Z,0.49
2022-12-09T02:35:17.431Z,0.46
2022-12-09T02:38:03.664Z,0.46
2022-12-09T02:40:44.739Z,0.47
2022-12-09T02:43:12.891Z,0.47
2022-12-09T02:45:41.438Z,0.43
2022-12-09T02:48:11.175Z,0.42
2022-12-09T02:50:41.695Z,0.39
2022-12-09T02:53:12.374Z,0.43
2022-12-09T02:55:42.749Z,0.47
2022-12-09T02:58:09.946Z,0.55
2022-12-09T03:00:41.038Z,0.59
2022-12-09T03:03:14.476Z,0.60
2022-12-09T03:05:41.432Z,0.59
2022-12-09T03:08:17.560Z,0.69
2022-12-09T03:10:56.640Z,0.67
2022-12-09T03:13:42.505Z,0.70
2022-12-09T03:16:37.524Z,0.67
2022-12-09T03:19:14.718Z,0.60
2022-12-09T03:21:46.263Z,0.52
2022-12-09T03:24:18.381Z,0.59
2022-12-09T03:26:45.397Z,0.70
2022-12-09T03:29:18.286Z,0.73
2022-12-09T03:31:47.347Z,0.66
2022-12-09T03:34:22.792Z,0.60
2022-12-09T03:36:52.047Z,0.59
2022-12-09T03:39:24.133Z,0.53
2022-12-09T03:41:55.698Z,0.47
2022-12-09T03:44:50.557Z,0.42
2022-12-09T03:47:17.858Z,0.41
2022-12-09T03:49:44.795Z,0.37
2022-12-09T03:52:15.542Z,0.39
2022-12-09T03:54:54.059Z,0.43
2022-12-09T03:57:21.978Z,0.56
2022-12-09T03:59:56.020Z,0.55
2022-12-09T04:02:23.613Z,0.60
2022-12-09T04:04:51.301Z,0.50
2022-12-09T04:07:18.315Z,0.46
2022-12-09T04:09:45.484Z,0.44
2022-12-09T04:12:12.383Z,0.42
2022-12-09T04:14:40.882Z,0.43
2022-12-09T04:17:07.849Z,0.40
2022-12-09T04:19:35.228Z,0.34
2022-12-09T04:22:01.975Z,0.27
2022-12-09T04:24:28.907Z,0.31
2022-12-09T04:26:55.878Z,0.36
2022-12-09T04:29:22.569Z,0.26
2022-12-09T04:31:49.699Z,0.26
2022-12-09T04:34:16.810Z,0.25
2022-12-09T04:36:43.753Z,0.26
2022-12-09T04:39:10.686Z,0.29
2022-12-09T04:41:37.526Z,0.22
2022-12-09T04:44:04.486Z,0.26
2022-12-09T04:46:31.212Z,0.24
2022-12-09T04:48:58.270Z,0.21
2022-12-09T04:51:25.303Z,0.14
2022-12-09T04:53:52.131Z,0.14
2022-12-09T04:56:21.483Z,0.11
2022-12-09T04:58:50.128Z,0.18
2022-12-09T05:01:22.669Z,0.16
2022-12-09T05:03:54.184Z,0.13
2022-12-09T05:06:22.260Z,0.18
2022-12-09T05:08:50.023Z,0.08
2022-12-09T05:11:19.427Z,0.15
2022-12-09T05:13:46.597Z,0.13
2022-12-09T05:16:16.861Z,0.07
2022-12-09T05:18:45.688Z,0.13
2022-12-09T05:21:17.214Z,0.25
2022-12-09T05:23:45.008Z,0.24
2022-12-09T05:26:15.266Z,0.34
2022-12-09T05:28:42.495Z,0.29
2022-12-09T05:31:13.372Z,0.35
2022-12-09T05:33:44.845Z,0.37
2022-12-09T05:36:13.767Z,0.37
2022-12-09T05:38:41.269Z,0.32
2022-12-09T05:41:08.397Z,0.27
2022-12-09T05:43:36.998Z,0.30
2022-12-09T05:46:05.181Z,0.33
2022-12-09T05:48:32.953Z,0.33
2022-12-09T05:51:12.391Z,0.36
2022-12-09T05:53:39.715Z,0.34
2022-12-09T05:56:06.818Z,0.42
2022-12-09T05:58:34.916Z,0.30
2022-12-09T06:01:09.469Z,0.36
2022-12-09T06:03:37.724Z,0.32
2022-12-09T06:06:16.334Z,0.31
2022-12-09T06:08:44.591Z,0.36
2022-12-09T06:11:17.282Z,0.33
2022-12-09T06:13:44.732Z,0.29
2022-12-09T06:16:12.530Z,0.33
2022-12-09T06:18:40.413Z,0.30
2022-12-09T06:21:10.050Z,0.28
2022-12-09T06:23:39.178Z,0.28
2022-12-09T06:26:06.945Z,0.27
2022-12-09T06:28:34.674Z,0.28
2022-12-09T06:31:01.792Z,0.24
2022-12-09T06:33:53.438Z,0.27
2022-12-09T06:36:16.176Z,0.24
2022-12-09T06:38:43.255Z,0.20
2022-12-09T06:41:13.629Z,0.26
2022-12-09T06:43:41.327Z,0.13
2022-12-09T06:46:17.070Z,0.25
2022-12-09T06:48:44.570Z,0.23
2022-12-09T06:51:12.128Z,0.21
2022-12-09T06:53:39.273Z,0.25
2022-12-09T06:56:12.321Z,0.24
2022-12-09T06:58:42.232Z,0.32
2022-12-09T07:01:15.778Z,0.21
2022-12-09T07:03:44.937Z,0.18
2022-12-09T07:06:36.508Z,0.21
2022-12-09T07:09:09.666Z,0.19
2022-12-09T07:11:37.704Z,0.15
2022-12-09T07:14:05.495Z,0.11
2022-12-09T07:16:33.668Z,0.08
2022-12-09T07:19:01.911Z,0.07
2022-12-09T07:21:29.802Z,0.05
2022-12-09T07:24:03.127Z,0.03
2022-12-09T07:26:33.653Z,0.04
2022-12-09T07:29:05.302Z,0.06
2022-12-09T07:31:32.845Z,0.11
2022-12-09T07:34:00.320Z,0.16
2022-12-09T07:36:30.491Z,0.18
2022-12-09T07:38:58.735Z,0.21
2022-12-09T07:41:26.568Z,0.21
2022-12-09T07:43:54.385Z,0.22
2022-12-09T07:46:22.764Z,0.23
2022-12-09T07:48:51.382Z,0.24
2022-12-09T07:51:19.249Z,0.25
2022-12-09T07:53:46.943Z,0.26
2022-12-09T07:56:15.724Z,0.28
2022-12-09T07:58:44.743Z,0.27
2022-12-09T08:01:15.433Z,0.30
2022-12-09T08:03:43.330Z,0.33
2022-12-09T08:06:15.482Z,0.32
2022-12-09T08:08:44.082Z,0.34
2022-12-09T08:11:20.592Z,0.35
2022-12-09T08:13:48.174Z,0.34
2022-12-09T08:16:17.610Z,0.35
2022-12-09T08:18:45.532Z,0.36
2022-12-09T08:21:15.362Z,0.39
2022-12-09T08:23:43.396Z,0.41
2022-12-09T08:26:11.454Z,0.43
2022-12-09T08:28:39.432Z,0.46
2022-12-09T08:31:12.496Z,0.47
2022-12-09T08:33:39.950Z,0.45
2022-12-09T08:36:13.739Z,0.47
2022-12-09T08:38:41.403Z,0.50
2022-12-09T08:41:20.732Z,0.54
2022-12-09T08:43:48.444Z,0.53
2022-12-09T08:46:15.744Z,0.56
2022-12-09T08:48:43.771Z,0.57
2022-12-09T08:51:12.369Z,0.58
2022-12-09T08:53:40.074Z,0.61
2022-12-09T08:56:11.887Z,0.61
2022-12-09T08:58:41.135Z,0.64
2022-12-09T09:01:14.837Z,0.74
2022-12-09T09:03:41.811Z,0.78
2022-12-09T09:06:10.825Z,0.80
2022-12-09T09:08:39.345Z,0.75
2022-12-09T09:11:12.417Z,0.79
2022-12-09T09:13:40.922Z,0.79
2022-12-09T09:16:14.205Z,0.83
2022-12-09T09:18:41.314Z,0.87
2022-12-09T09:21:09.795Z,0.95
2022-12-09T09:23:36.845Z,0.99
2022-12-09T09:26:04.166Z,0.92
2022-12-09T09:28:31.968Z,1.04
2022-12-09T09:31:00.816Z,1.11
2022-12-09T09:33:28.312Z,1.13
2022-12-09T09:36:05.531Z,1.25
2022-12-09T09:38:35.980Z,1.13
2022-12-09T09:41:15.486Z,1.12
2022-12-09T09:43:44.542Z,1.33
2022-12-09T09:46:20.732Z,1.66
2022-12-09T09:48:48.640Z,1.81
2022-12-09T09:51:18.451Z,2.33
2022-12-09T09:53:48.632Z,2.50
2022-12-09T09:56:30.136Z,2.49
2022-12-09T09:59:16.012Z,2.60
2022-12-09T10:01:48.891Z,2.72
2022-12-09T10:04:15.833Z,2.76
2022-12-09T10:06:43.369Z,2.79
2022-12-09T10:09:30.059Z,3.13
2022-12-09T10:12:15.357Z,2.76
2022-12-09T10:15:02.810Z,3.23
2022-12-09T10:18:07.304Z,2.88
2022-12-09T10:20:35.019Z,2.53
2022-12-09T10:23:11.036Z,2.99
2022-12-09T10:25:45.519Z,3.04
2022-12-09T10:28:20.106Z,3.30
2022-12-09T10:30:47.980Z,3.27
2022-12-09T10:33:16.719Z,2.87
2022-12-09T10:35:44.161Z,2.93
2022-12-09T10:38:14.074Z,2.93
2022-12-09T10:40:47.451Z,3.35
2022-12-09T10:43:37.480Z,3.07
2022-12-09T10:46:23.081Z,2.89
2022-12-09T10:48:50.510Z,3.04
2022-12-09T10:51:20.853Z,2.74
2022-12-09T10:53:51.658Z,2.51
2022-12-09T10:56:23.676Z,2.52
2022-12-09T10:59:08.059Z,2.17
2022-12-09T11:01:58.878Z,2.28
2022-12-09T11:04:30.766Z,2.13
2022-12-09T11:07:14.020Z,2.15
2022-12-09T11:09:47.360Z,2.11
2022-12-09T11:12:27.398Z,1.91
2022-12-09T11:15:06.177Z,2.15
2022-12-09T11:17:37.041Z,2.02
2022-12-09T11:20:19.531Z,1.95
2022-12-09T11:22:59.899Z,2.00
2022-12-09T11:25:30.386Z,2.05
2022-12-09T11:28:15.801Z,2.15
2022-12-09T11:31:12.120Z,2.23
2022-12-09T11:33:48.243Z,2.46
2022-12-09T11:36:29.876Z,2.56
2022-12-09T11:39:19.356Z,2.61
2022-12-09T11:42:16.457Z,2.64
2022-12-09T11:45:25.421Z,2.84
2022-12-09T11:50:42.770Z,3.78
2022-12-09T11:53:12.557Z,3.46
2022-12-09T11:55:46.687Z,3.53
2022-12-09T11:58:25.864Z,3.65
2022-12-09T12:00:59.912Z,3.49
2022-12-09T12:03:47.307Z,3.54
2022-12-09T12:06:21.816Z,3.35
2022-12-09T12:08:58.099Z,3.27
2022-12-09T12:11:45.399Z,3.85
2022-12-09T12:14:17.023Z,3.63
2022-12-09T12:17:16.353Z,3.53
2022-12-09T12:19:46.403Z,3.35
2022-12-09T12:22:31.834Z,3.11
2022-12-09T12:25:23.661Z,3.06
2022-12-09T12:27:59.336Z,3.06
2022-12-09T12:31:04.512Z,2.81
2022-12-09T12:34:07.793Z,2.62
2022-12-09T12:36:44.288Z,2.78
2022-12-09T12:39:35.634Z,2.69
2022-12-09T12:42:27.158Z,3.03
2022-12-09T12:45:15.397Z,2.87
2022-12-09T12:48:07.894Z,2.73
2022-12-09T12:50:53.044Z,2.72
2022-12-09T12:53:39.286Z,2.78
2022-12-09T12:56:11.711Z,3.08
2022-12-09T12:59:15.913Z,3.06
2022-12-09T13:01:56.493Z,3.04
2022-12-09T13:04:29.352Z,3.33
2022-12-09T13:07:15.088Z,3.23
2022-12-09T13:09:47.835Z,3.06
2022-12-09T13:12:44.039Z,2.78
2022-12-09T13:15:15.051Z,2.79
2022-12-09T13:17:43.377Z,2.79
2022-12-09T13:20:20.710Z,2.75
2022-12-09T13:22:55.657Z,2.73
2022-12-09T13:25:31.706Z,2.52
2022-12-09T13:28:09.082Z,2.43
2022-12-09T13:30:42.809Z,2.45
2022-12-09T13:33:16.848Z,2.53
2022-12-09T13:35:50.159Z,2.39
2022-12-09T13:38:43.367Z,2.37
2022-12-09T13:41:31.709Z,2.28
2022-12-09T13:44:11.574Z,2.21
2022-12-09T13:46:38.833Z,2.09
2022-12-09T13:49:11.030Z,1.94
2022-12-09T13:51:51.702Z,1.91
2022-12-09T13:54:20.622Z,1.76
2022-12-09T13:57:13.035Z,1.68
2022-12-09T13:59:56.438Z,1.54
2022-12-09T14:02:42.839Z,1.48
2022-12-09T14:05:14.210Z,1.38
2022-12-09T14:07:59.706Z,1.31
2022-12-09T14:10:40.894Z,1.25
2022-12-09T14:13:22.637Z,1.17
2022-12-09T14:16:13.789Z,1.05
2022-12-09T14:18:41.416Z,0.99
2022-12-09T14:21:20.139Z,0.96
2022-12-09T14:24:09.128Z,0.90
2022-12-09T14:26:44.968Z,0.95
2022-12-09T14:29:12.512Z,0.87
2022-12-09T14:32:02.400Z,0.84
2022-12-09T14:34:38.564Z,0.81
2022-12-09T14:37:33.192Z,0.75
2022-12-09T14:40:10.839Z,0.78
2022-12-09T14:42:50.639Z,0.73
2022-12-09T14:45:17.324Z,0.71
2022-12-09T14:47:46.623Z,0.66
2022-12-09T14:50:18.174Z,0.58
2022-12-09T14:52:55.504Z,0.59
2022-12-09T14:55:25.529Z,0.58
2022-12-09T14:57:53.619Z,0.46
2022-12-09T15:00:40.976Z,0.45
2022-12-09T15:03:33.195Z,0.30
2022-12-09T15:06:06.153Z,0.32
2022-12-09T15:08:38.913Z,0.21
2022-12-09T15:11:11.679Z,0.21
2022-12-09T15:13:42.088Z,0.24
2022-12-09T15:16:18.251Z,0.07
2022-12-09T15:18:46.173Z,0.05
2022-12-09T15:21:30.122Z,-0.06
2022-12-09T15:23:57.607Z,-0.08
2022-12-09T15:26:29.012Z,0.01
2022-12-09T15:28:57.410Z,0.00
2022-12-09T15:31:27.104Z,-0.01
2022-12-09T15:33:56.682Z,-0.08
2022-12-09T15:36:41.630Z,-0.09
2022-12-09T15:39:20.044Z,-0.14
2022-12-09T15:42:10.083Z,-0.18
2022-12-09T15:44:51.820Z,-0.22
2022-12-09T15:47:28.379Z,-0.28
2022-12-09T15:50:18.471Z,-0.31
2022-12-09T15:52:52.300Z,-0.34
2022-12-09T15:55:26.122Z,-0.36
2022-12-09T15:57:55.412Z,-0.39
2022-12-09T16:00:22.957Z,-0.46
2022-12-09T16:02:50.848Z,-0.49
2022-12-09T16:05:24.591Z,-0.55
2022-12-09T16:07:52.578Z,-0.51
2022-12-09T16:10:19.825Z,-0.49
2022-12-09T16:12:46.645Z,-0.65
2022-12-09T16:15:34.684Z,-0.69
2022-12-09T16:18:03.062Z,-0.71
2022-12-09T16:20:39.174Z,-0.61
2022-12-09T16:23:21.007Z,-0.58
2022-12-09T16:25:50.199Z,-0.57
2022-12-09T16:28:23.581Z,-0.55
2022-12-09T16:30:53.135Z,-0.73
2022-12-09T16:33:24.337Z,-0.70
2022-12-09T16:36:03.971Z,-0.77
2022-12-09T16:38:35.486Z,-0.54
2022-12-09T16:41:03.870Z,-0.46
2022-12-09T16:43:31.045Z,-0.49
2022-12-09T16:46:22.963Z,-0.40
2022-12-09T16:48:50.010Z,-0.43
2022-12-09T16:51:24.528Z,-0.40
2022-12-09T16:53:53.618Z,-0.40
2022-12-09T16:56:26.279Z,-0.37
2022-12-09T16:58:54.568Z,-0.31
2022-12-09T17:01:25.735Z,-0.28
2022-12-09T17:04:01.036Z,-0.17
2022-12-09T17:06:28.674Z,-0.17
2022-12-09T17:08:55.777Z,-0.14
2022-12-09T17:11:22.785Z,-0.08
2022-12-09T17:13:50.322Z,-0.03
2022-12-09T17:16:17.371Z,-0.01
2022-12-09T17:18:44.339Z,0.00
2022-12-09T17:21:13.569Z,0.03
2022-12-09T17:23:41.421Z,0.03
2022-12-09T17:26:10.698Z,0.03
2022-12-09T17:28:38.771Z,0.02
2022-12-09T17:31:11.228Z,0.01
2022-12-09T17:33:38.649Z,0.02
2022-12-09T17:36:07.448Z,0.00
2022-12-09T17:38:34.371Z,0.03
2022-12-09T17:41:06.028Z,0.02
2022-12-09T17:43:33.010Z,0.01
2022-12-09T17:46:01.344Z,-0.01
2022-12-09T17:48:29.697Z,-0.02
2022-12-09T17:50:56.703Z,-0.01
2022-12-09T17:53:23.847Z,-0.01
2022-12-09T17:55:50.570Z,0.00
2022-12-09T17:58:17.416Z,-0.01
2022-12-09T18:00:44.388Z,-0.04
2022-12-09T18:03:17.885Z,-0.08
2022-12-09T18:05:49.062Z,-0.12
2022-12-09T18:08:15.783Z,-0.13
2022-12-09T18:10:44.245Z,-0.19
2022-12-09T18:13:11.093Z,-0.20
2022-12-09T18:15:37.769Z,-0.23
2022-12-09T18:18:04.805Z,-0.26
2022-12-09T18:20:31.508Z,-0.28
2022-12-09T18:22:58.224Z,-0.33
2022-12-09T18:25:24.927Z,-0.33
2022-12-09T18:27:51.609Z,-0.36
2022-12-09T18:30:18.397Z,-0.39
2022-12-09T18:32:45.116Z,-0.51
2022-12-09T18:35:11.812Z,-0.51
2022-12-09T18:37:38.510Z,-0.64
2022-12-09T18:40:06.346Z,-0.66
2022-12-09T18:42:33.192Z,-0.68
2022-12-09T18:44:59.882Z,-0.70
2022-12-09T18:47:26.612Z,-0.66
2022-12-09T18:49:53.560Z,-0.69
2022-12-09T18:52:20.474Z,-0.74
2022-12-09T18:54:47.897Z,-0.78
2022-12-09T18:57:14.681Z,-0.83
2022-12-09T18:59:41.393Z,-0.86
2022-12-09T19:02:10.619Z,-0.89
2022-12-09T19:04:37.780Z,-0.93
2022-12-09T19:07:04.565Z,-1.01
2022-12-09T19:09:34.849Z,-0.99
2022-12-09T19:12:22.935Z,-1.01
2022-12-09T19:14:50.424Z,-1.00
2022-12-09T19:17:18.844Z,-1.06
2022-12-09T19:19:47.319Z,-1.12
2022-12-09T19:22:14.765Z,-1.11
2022-12-09T19:24:43.414Z,-1.12
2022-12-09T19:27:10.767Z,-1.17
2022-12-09T19:29:37.593Z,-1.19
2022-12-09T19:32:13.868Z,-1.24
2022-12-09T19:34:50.588Z,-1.29
2022-12-09T19:37:17.368Z,-1.31
2022-12-09T19:39:45.129Z,-1.31
2022-12-09T19:42:11.929Z,-1.37
2022-12-09T19:45:00.452Z,-1.42
2022-12-09T19:47:25.492Z,-1.40
2022-12-09T19:49:52.146Z,-1.51
2022-12-09T19:52:19.044Z,-1.63
2022-12-09T19:54:45.860Z,-1.62
2022-12-09T19:57:12.878Z,-1.67
2022-12-09T19:59:39.679Z,-1.73
2022-12-09T20:02:11.908Z,-1.76
2022-12-09T20:04:48.720Z,-1.85
2022-12-09T20:07:15.797Z,-1.94
2022-12-09T20:09:42.462Z,-1.75
2022-12-09T20:12:09.166Z,-1.87
2022-12-09T20:14:35.970Z,-1.82
2022-12-09T20:17:02.717Z,-1.91
2022-12-09T20:19:29.501Z,-1.88
2022-12-09T20:21:56.231Z,-1.81
2022-12-09T20:24:23.235Z,-1.82
2022-12-09T20:26:50.116Z,-1.75
2022-12-09T20:29:16.839Z,-1.68
2022-12-09T20:31:43.646Z,-1.71
2022-12-09T20:34:16.666Z,-1.70
2022-12-09T20:36:45.088Z,-1.74
2022-12-09T20:39:15.279Z,-1.74
2022-12-09T20:41:42.919Z,-1.63
2022-12-09T20:44:10.646Z,-1.65
2022-12-09T20:46:39.536Z,-1.70
2022-12-09T20:49:06.299Z,-1.70
2022-12-09T20:51:36.156Z,-1.70
2022-12-09T20:54:05.208Z,-1.64
2022-12-09T20:56:33.351Z,-1.61
2022-12-09T20:59:00.573Z,-1.62
2022-12-09T21:01:30.724Z,-1.71
2022-12-09T21:03:58.611Z,-1.57
2022-12-09T21:06:29.583Z,-1.53
2022-12-09T21:08:59.375Z,-1.59
2022-12-09T21:11:26.432Z,-1.60
2022-12-09T21:13:57.798Z,-1.60
2022-12-09T21:16:33.713Z,-1.64
2022-12-09T21:19:05.262Z,-1.67
2022-12-09T21:21:34.569Z,-1.66
2022-12-09T21:24:01.724Z,-1.56
2022-12-09T21:26:29.187Z,-1.59
2022-12-09T21:28:58.880Z,-1.68
2022-12-09T21:31:31.905Z,-1.68
2022-12-09T21:34:03.698Z,-1.67
2022-12-09T21:36:36.173Z,-1.60
2022-12-09T21:39:04.945Z,-1.71
2022-12-09T21:41:34.264Z,-1.72
2022-12-09T21:44:01.098Z,-1.74
2022-12-09T21:46:30.756Z,-1.67
2022-12-09T21:49:03.575Z,-1.62
2022-12-09T21:51:31.321Z,-1.63
2022-12-09T21:53:58.258Z,-1.76
2022-12-09T21:56:27.872Z,-1.80
2022-12-09T21:58:56.862Z,-1.83
2022-12-09T22:01:32.128Z,-1.87
2022-12-09T22:04:00.948Z,-2.22
2022-12-09T22:06:29.051Z,-2.25
2022-12-09T22:08:58.727Z,-2.42
2022-12-09T22:11:28.533Z,-2.32
2022-12-09T22:14:00.168Z,-2.49
2022-12-09T22:16:31.113Z,-2.54
2022-12-09T22:18:59.816Z,-2.58
2022-12-09T22:21:29.184Z,-2.69
2022-12-09T22:24:02.822Z,-2.64
2022-12-09T22:26:29.935Z,-2.62
2022-12-09T22:28:59.337Z,-2.61
2022-12-09T22:31:31.839Z,-2.61
2022-12-09T22:34:08.102Z,-2.54
2022-12-09T22:36:37.095Z,-2.40
2022-12-09T22:39:06.978Z,-2.31
2022-12-09T22:41:34.811Z,-2.20
2022-12-09T22:44:01.730Z,-2.16
2022-12-09T22:46:30.971Z,-2.10
2022-12-09T22:49:01.037Z,-2.00
2022-12-09T22:51:30.245Z,-1.97
2022-12-09T22:53:58.066Z,-1.83
2022-12-09T22:56:26.086Z,-1.84
2022-12-09T22:58:53.398Z,-1.94
2022-12-09T23:01:26.385Z,-1.98
2022-12-09T23:03:55.063Z,-1.85
2022-12-09T23:06:22.517Z,-1.86
2022-12-09T23:08:49.262Z,-1.84
2022-12-09T23:11:18.729Z,-1.76
2022-12-09T23:13:45.684Z,-1.77
2022-12-09T23:16:20.461Z,-1.76
2022-12-09T23:18:47.717Z,-1.73
2022-12-09T23:21:20.924Z,-1.83
2022-12-09T23:23:48.031Z,-1.71
2022-12-09T23:26:17.681Z,-1.53
2022-12-09T23:28:50.228Z,-1.65
2022-12-09T23:31:19.835Z,-1.72
2022-12-09T23:33:48.826Z,-1.72
2022-12-09T23:36:19.184Z,-1.65
2022-12-09T23:38:48.444Z,-1.55
2022-12-09T23:41:17.545Z,-1.63
2022-12-09T23:43:45.675Z,-1.68
2022-12-09T23:46:16.264Z,-1.63
2022-12-09T23:48:44.619Z,-1.57
2022-12-09T23:51:21.226Z,-1.63
2022-12-09T23:53:49.691Z,-1.63
2022-12-09T23:56:19.731Z,-1.41
2022-12-09T23:58:47.311Z,-1.44
